056  
SHUS65 KGJT 172018  
FWOGJT  
 
DAILY FIRE WEATHER OBSERVATION  
NATIONAL WEATHER SERVICE GRAND JUNCTION CO  
213 PM MDT TUE SEP 17 2019  
 
STATE OF THE WEATHER (W) 2  
DRY BULB TEMPERATURE 75 DEGREES FAHRENHEIT  
RELATIVE HUMIDITY (RH) 36 PERCENT  
LIGHTNING ACTIVITY LEVEL  
(LAL - MIDNIGHT TO 2 PM) 2  
WIND DIRECTION 315 DEGREES (C IF CALM)  
WIND SPEED 20 MPH  
MAX TEMP (2 PM - 2 PM) 84 DEGREES FAHRENHEIT  
MIN TEMP (2 PM - 2 PM) 66 DEGREES FAHRENHEIT  
MAX RH (2 PM - 2 PM) 47 PERCENT  
MIN RH (2 PM - 2 PM) 27 PERCENT  
PCPN DURATION 0.3 HOURS  
PCPN AMT (2 PM - 2 PM) 0.01 INCHES  
LAL (2 PM - 2 PM) 2  
 

 
 
METAR KGJT 171953Z 30017G24KT 10SM FEW110 24/08 A2997 RMK AO2 PK  
WND 30026/1942 SLP085 T02390078  
 
CLICK HERE TO GO TO PREVIOUS BULLETINS.

The Nexlab CO Page
The Nexlab UT Page Main Text Page